createdAt,value
2023-03-28T00:01:33.663Z,3.25
2023-03-28T00:04:03.167Z,3.53
2023-03-28T00:06:34.003Z,5.28
2023-03-28T00:09:03.464Z,18.50
2023-03-28T00:11:33.503Z,5.32
2023-03-28T00:14:03.513Z,4.97
2023-03-28T00:16:39.381Z,5.25
2023-03-28T00:19:16.785Z,5.93
2023-03-28T00:21:51.366Z,5.47
2023-03-28T00:24:22.354Z,5.95
2023-03-28T00:26:54.913Z,5.05
2023-03-28T00:29:26.161Z,6.53
2023-03-28T00:31:55.564Z,6.40
2023-03-28T00:34:25.668Z,5.03
2023-03-28T00:36:56.931Z,5.65
2023-03-28T00:39:27.726Z,6.72
2023-03-28T00:41:57.982Z,7.63
2023-03-28T00:44:56.198Z,6.13
2023-03-28T00:47:40.939Z,6.03
2023-03-28T00:50:20.128Z,8.40
2023-03-28T00:52:56.658Z,7.10
2023-03-28T00:55:32.444Z,6.90
2023-03-28T00:58:02.139Z,7.28
2023-03-28T01:00:32.908Z,7.78
2023-03-28T01:03:06.728Z,7.85
2023-03-28T01:05:37.459Z,6.22
2023-03-28T01:08:14.986Z,8.77
2023-03-28T01:10:46.366Z,13.43
2023-03-28T01:13:21.048Z,6.68
2023-03-28T01:15:52.072Z,8.65
2023-03-28T01:18:26.739Z,8.07
2023-03-28T01:21:54.870Z,7.68
2023-03-28T01:25:19.843Z,8.70
2023-03-28T01:27:54.468Z,6.05
2023-03-28T01:31:08.672Z,8.25
2023-03-28T01:34:54.745Z,6.45
2023-03-28T01:37:40.999Z,9.63
2023-03-28T01:40:31.440Z,7.57
2023-03-28T01:43:26.024Z,9.13
2023-03-28T01:46:03.380Z,8.48
2023-03-28T01:48:52.058Z,6.75
2023-03-28T01:51:38.128Z,7.75
2023-03-28T01:54:18.005Z,9.15
2023-03-28T01:56:54.670Z,7.93
2023-03-28T01:59:39.272Z,6.88
2023-03-28T02:02:43.089Z,8.95
2023-03-28T02:05:31.769Z,7.70
2023-03-28T02:08:05.180Z,6.47
2023-03-28T02:10:51.407Z,8.80
2023-03-28T02:16:50.012Z,12.60
2023-03-28T02:19:50.547Z,6.80
2023-03-28T02:22:37.223Z,11.38
2023-03-28T02:25:19.638Z,7.50
2023-03-28T02:28:06.807Z,7.50
2023-03-28T02:30:40.614Z,7.47
2023-03-28T02:33:39.059Z,7.18
2023-03-28T02:36:33.614Z,8.10
2023-03-28T02:39:48.214Z,8.27
2023-03-28T02:43:08.606Z,7.50
2023-03-28T02:46:12.064Z,8.57
2023-03-28T02:49:47.288Z,8.00
2023-03-28T02:52:35.036Z,11.70
2023-03-28T02:55:17.483Z,7.53
2023-03-28T02:58:13.358Z,8.73
2023-03-28T03:00:42.930Z,8.75
2023-03-28T03:03:14.092Z,10.27
2023-03-28T03:05:45.292Z,8.20
2023-03-28T03:08:15.188Z,9.80
2023-03-28T03:10:44.610Z,6.47
2023-03-28T03:13:14.043Z,7.97
2023-03-28T03:15:43.747Z,8.43
2023-03-28T03:18:22.910Z,7.65
2023-03-28T03:20:54.800Z,9.30
2023-03-28T03:23:24.272Z,10.00
2023-03-28T03:25:57.254Z,11.07
2023-03-28T03:28:36.836Z,11.52
2023-03-28T03:31:08.623Z,10.02
2023-03-28T03:34:01.912Z,8.97
2023-03-28T03:36:36.650Z,7.70
2023-03-28T03:39:09.232Z,11.02
2023-03-28T03:41:39.300Z,8.25
2023-03-28T03:44:09.209Z,8.07
2023-03-28T03:46:39.343Z,7.15
2023-03-28T03:49:10.868Z,9.00
2023-03-28T03:51:41.980Z,6.80
2023-03-28T03:54:11.654Z,7.28
2023-03-28T03:56:42.296Z,8.02
2023-03-28T03:59:13.224Z,7.97
2023-03-28T04:01:43.945Z,10.63
2023-03-28T04:04:33.701Z,8.73
2023-03-28T04:07:10.725Z,9.38
2023-03-28T04:09:40.547Z,14.27
2023-03-28T04:12:12.584Z,12.10
2023-03-28T04:15:10.127Z,12.20
2023-03-28T04:17:41.350Z,11.43
2023-03-28T04:20:15.355Z,8.43
2023-03-28T04:23:06.033Z,10.52
2023-03-28T04:28:16.104Z,11.40
2023-03-28T04:31:12.060Z,12.60
2023-03-28T04:34:00.319Z,8.40
2023-03-28T04:36:31.402Z,11.25
2023-03-28T04:39:05.988Z,9.13
2023-03-28T04:42:14.254Z,14.85
2023-03-28T04:45:17.920Z,8.98
2023-03-28T04:47:49.781Z,10.77
2023-03-28T04:50:21.613Z,12.93
2023-03-28T04:52:51.088Z,10.02
2023-03-28T04:55:21.848Z,11.65
2023-03-28T04:57:52.630Z,11.02
2023-03-28T05:00:25.457Z,15.18
2023-03-28T05:03:14.456Z,13.13
2023-03-28T05:05:58.039Z,10.10
2023-03-28T05:08:27.764Z,11.32
2023-03-28T05:10:58.886Z,11.07
2023-03-28T05:13:29.307Z,8.88
2023-03-28T05:16:12.903Z,10.70
2023-03-28T05:19:01.607Z,11.20
2023-03-28T05:21:51.033Z,9.93
2023-03-28T05:24:20.723Z,11.27
2023-03-28T05:26:51.549Z,10.52
2023-03-28T05:29:25.747Z,11.40
2023-03-28T05:31:55.819Z,12.27
2023-03-28T05:34:30.491Z,17.30
2023-03-28T05:37:00.412Z,12.88
2023-03-28T05:39:32.998Z,11.65
2023-03-28T05:44:40.741Z,8.38
2023-03-28T05:47:28.976Z,8.90
2023-03-28T05:50:00.451Z,10.80
2023-03-28T05:52:29.933Z,11.45
2023-03-28T05:54:59.469Z,11.82
2023-03-28T05:57:30.246Z,10.00
2023-03-28T05:59:59.822Z,11.73
2023-03-28T06:02:30.935Z,9.10
2023-03-28T06:05:00.477Z,11.77
2023-03-28T06:07:41.408Z,10.50
2023-03-28T06:10:15.550Z,12.20
2023-03-28T06:12:56.169Z,13.65
2023-03-28T06:15:26.308Z,8.52
2023-03-28T06:17:55.997Z,11.43
2023-03-28T06:20:26.069Z,10.23
2023-03-28T06:22:57.466Z,15.90
2023-03-28T06:25:26.986Z,9.80
2023-03-28T06:27:58.088Z,8.57
2023-03-28T06:30:27.689Z,8.85
2023-03-28T06:32:57.445Z,10.82
2023-03-28T06:35:27.380Z,9.18
2023-03-28T06:37:56.889Z,10.93
2023-03-28T06:40:29.020Z,9.07
2023-03-28T06:43:00.623Z,10.93
2023-03-28T06:45:50.429Z,11.30
2023-03-28T06:48:20.901Z,8.32
2023-03-28T06:51:16.434Z,8.75
2023-03-28T06:53:48.047Z,10.68
2023-03-28T06:56:19.761Z,11.52
2023-03-28T06:58:50.827Z,12.20
2023-03-28T07:01:25.739Z,6.75
2023-03-28T07:04:21.597Z,9.90
2023-03-28T07:06:51.065Z,8.27
2023-03-28T07:09:20.607Z,9.35
2023-03-28T07:11:56.600Z,8.00
2023-03-28T07:14:28.188Z,8.93
2023-03-28T07:16:57.797Z,6.57
2023-03-28T07:19:28.983Z,6.80
2023-03-28T07:21:58.578Z,10.30
2023-03-28T07:24:28.598Z,11.05
2023-03-28T07:29:39.617Z,8.35
2023-03-28T07:32:09.153Z,7.38
2023-03-28T07:34:38.970Z,8.95
2023-03-28T07:37:11.182Z,9.65
2023-03-28T07:39:56.491Z,9.38
2023-03-28T07:42:28.729Z,5.95
2023-03-28T07:44:59.544Z,7.22
2023-03-28T07:47:31.188Z,9.07
2023-03-28T07:50:00.636Z,8.77
2023-03-28T07:52:30.346Z,9.25
2023-03-28T07:55:00.040Z,9.00
2023-03-28T07:57:30.607Z,8.02
2023-03-28T08:00:18.672Z,12.07
2023-03-28T08:03:05.866Z,8.25
2023-03-28T08:05:37.555Z,8.20
2023-03-28T08:08:09.209Z,8.45
2023-03-28T08:10:38.764Z,6.38
2023-03-28T08:13:08.246Z,12.90
2023-03-28T08:15:39.220Z,5.72
2023-03-28T08:18:09.134Z,8.30
2023-03-28T08:20:40.232Z,6.70
2023-03-28T08:23:15.915Z,8.75
2023-03-28T08:25:45.419Z,7.47
2023-03-28T08:28:17.752Z,8.03
2023-03-28T08:30:48.824Z,9.00
2023-03-28T08:33:18.284Z,9.40
2023-03-28T08:35:48.221Z,11.43
2023-03-28T08:38:21.279Z,5.57
2023-03-28T08:41:03.361Z,6.05
2023-03-28T08:44:16.997Z,8.15
2023-03-28T08:46:54.327Z,8.55
2023-03-28T08:49:24.315Z,5.22
2023-03-28T08:51:59.534Z,7.57
2023-03-28T08:54:38.792Z,5.80
2023-03-28T08:57:17.568Z,5.97
2023-03-28T08:59:59.984Z,5.07
2023-03-28T09:02:33.336Z,10.23
2023-03-28T09:07:47.500Z,6.47
2023-03-28T09:10:28.744Z,3.22
2023-03-28T09:13:26.995Z,7.68
2023-03-28T09:16:31.713Z,4.50
2023-03-28T09:19:47.859Z,6.15
2023-03-28T09:23:19.789Z,6.20
2023-03-28T09:26:14.087Z,2.95
2023-03-28T09:28:53.941Z,7.05
2023-03-28T09:31:31.064Z,3.33
2023-03-28T09:34:03.699Z,3.10
2023-03-28T09:36:49.551Z,4.00
2023-03-28T09:39:32.651Z,6.80
2023-03-28T09:42:12.233Z,8.25
2023-03-28T09:45:05.787Z,6.10
2023-03-28T09:47:54.166Z,6.32
2023-03-28T09:50:27.677Z,3.35
2023-03-28T09:53:01.540Z,8.35
2023-03-28T09:55:32.467Z,4.28
2023-03-28T09:58:07.143Z,5.85
2023-03-28T10:00:57.035Z,4.90
2023-03-28T10:03:54.867Z,4.15
2023-03-28T10:06:40.622Z,3.03
2023-03-28T10:09:20.055Z,5.43
2023-03-28T10:12:10.072Z,4.25
2023-03-28T10:14:47.079Z,3.35
2023-03-28T10:17:42.278Z,3.88
2023-03-28T10:20:21.476Z,4.22
2023-03-28T10:22:57.138Z,3.35
2023-03-28T10:28:14.123Z,4.65
2023-03-28T10:30:44.152Z,2.53
2023-03-28T10:33:33.115Z,5.38
2023-03-28T10:36:32.607Z,3.28
2023-03-28T10:39:24.168Z,3.05
2023-03-28T10:42:15.382Z,3.72
2023-03-28T10:45:01.670Z,4.28
2023-03-28T10:47:35.204Z,2.28
2023-03-28T10:53:10.441Z,5.20
2023-03-28T10:56:01.579Z,2.70
2023-03-28T10:58:59.503Z,3.45
2023-03-28T11:01:48.011Z,5.30
2023-03-28T11:04:39.553Z,5.28
2023-03-28T11:07:18.050Z,5.20
2023-03-28T11:10:17.046Z,4.07
2023-03-28T11:13:17.312Z,5.43
2023-03-28T11:16:00.736Z,3.45
2023-03-28T11:19:01.804Z,4.53
2023-03-28T11:21:48.426Z,4.57
2023-03-28T11:24:32.590Z,3.55
2023-03-28T11:27:25.522Z,4.63
2023-03-28T11:30:21.439Z,5.63
2023-03-28T11:33:16.620Z,4.85
2023-03-28T11:35:51.165Z,5.82
2023-03-28T11:38:26.244Z,2.92
2023-03-28T11:41:04.301Z,3.10
2023-03-28T11:44:02.368Z,4.47
2023-03-28T11:46:36.889Z,4.75
2023-03-28T11:49:20.717Z,5.75
2023-03-28T11:52:02.524Z,4.55
2023-03-28T11:54:39.819Z,6.07
2023-03-28T11:57:20.813Z,4.78
2023-03-28T12:00:02.541Z,6.78
2023-03-28T12:02:48.721Z,4.32
2023-03-28T12:05:30.705Z,4.82
2023-03-28T12:08:09.346Z,5.38
2023-03-28T12:10:43.263Z,5.07
2023-03-28T12:13:45.568Z,3.40
2023-03-28T12:16:23.963Z,2.95
2023-03-28T12:19:00.185Z,2.97
2023-03-28T12:22:01.539Z,3.10
2023-03-28T12:24:52.510Z,4.20
2023-03-28T12:27:43.938Z,4.85
2023-03-28T12:30:26.504Z,6.13
2023-03-28T12:33:14.060Z,5.43
2023-03-28T12:36:00.542Z,3.50
2023-03-28T12:38:39.986Z,5.68
2023-03-28T12:41:29.071Z,4.03
2023-03-28T12:44:04.561Z,3.10
2023-03-28T12:46:48.077Z,3.65
2023-03-28T12:49:33.811Z,7.10
2023-03-28T12:52:13.493Z,2.95
2023-03-28T12:55:01.601Z,5.93
2023-03-28T12:57:48.395Z,2.92
2023-03-28T13:00:48.079Z,5.00
2023-03-28T13:03:51.263Z,5.43
2023-03-28T13:06:40.227Z,3.63
2023-03-28T13:09:51.541Z,4.07
2023-03-28T13:12:41.608Z,5.22
2023-03-28T13:15:33.818Z,8.45
2023-03-28T13:18:32.633Z,3.30
2023-03-28T13:21:07.183Z,3.70
2023-03-28T13:23:47.650Z,4.72
2023-03-28T13:26:17.134Z,3.85
2023-03-28T13:28:51.593Z,5.60
2023-03-28T13:31:24.302Z,3.05
2023-03-28T13:34:01.425Z,4.82
2023-03-28T13:36:33.444Z,4.70
2023-03-28T13:39:24.937Z,4.78
2023-03-28T13:42:01.409Z,2.80
2023-03-28T13:44:43.275Z,4.07
2023-03-28T13:47:26.966Z,4.28
2023-03-28T13:50:06.084Z,9.10
2023-03-28T13:52:35.618Z,3.65
2023-03-28T13:55:20.966Z,4.10
2023-03-28T13:57:51.364Z,5.43
2023-03-28T14:00:26.701Z,3.40
2023-03-28T14:03:04.727Z,2.78
2023-03-28T14:05:35.941Z,3.13
2023-03-28T14:08:25.327Z,7.05
2023-03-28T14:10:56.876Z,5.13
2023-03-28T14:13:30.108Z,3.63
2023-03-28T14:18:36.265Z,4.80
2023-03-28T14:21:07.603Z,5.25
2023-03-28T14:23:40.203Z,3.85
2023-03-28T14:26:19.990Z,3.33
2023-03-28T14:28:52.242Z,4.43
2023-03-28T14:31:38.296Z,3.77
2023-03-28T14:34:23.879Z,3.58
2023-03-28T14:37:00.894Z,5.75
2023-03-28T14:39:33.875Z,4.25
2023-03-28T14:42:07.405Z,5.25
2023-03-28T14:44:42.212Z,4.82
2023-03-28T14:47:18.380Z,3.95
2023-03-28T14:49:48.066Z,6.47
2023-03-28T14:52:30.167Z,7.25
2023-03-28T14:55:01.647Z,8.20
2023-03-28T14:57:31.713Z,4.55
2023-03-28T15:00:01.869Z,3.92
2023-03-28T15:02:36.758Z,4.25
2023-03-28T15:05:11.049Z,4.32
2023-03-28T15:07:42.128Z,3.30
2023-03-28T15:10:22.809Z,5.30
2023-03-28T15:13:05.368Z,6.03
2023-03-28T15:15:38.532Z,5.70
2023-03-28T15:23:22.070Z,4.68
2023-03-28T15:25:52.307Z,3.33
2023-03-28T15:28:22.035Z,6.97
2023-03-28T15:30:51.700Z,6.60
2023-03-28T15:33:26.059Z,4.45
2023-03-28T15:36:08.281Z,3.70
2023-03-28T15:38:41.136Z,4.88
2023-03-28T15:41:20.083Z,5.68
2023-03-28T15:44:13.189Z,4.40
2023-03-28T15:46:42.685Z,2.95
2023-03-28T15:49:13.844Z,3.97
2023-03-28T15:51:52.521Z,3.80
2023-03-28T15:54:31.309Z,4.18
2023-03-28T15:57:03.612Z,5.45
2023-03-28T15:59:39.217Z,3.67
2023-03-28T16:02:37.154Z,5.32
2023-03-28T16:05:28.682Z,3.75
2023-03-28T16:07:58.193Z,4.50
2023-03-28T16:10:27.750Z,4.88
2023-03-28T16:13:23.161Z,4.05
2023-03-28T16:16:25.172Z,5.53
2023-03-28T16:19:06.291Z,4.93
2023-03-28T16:21:37.114Z,6.82
2023-03-28T16:24:07.159Z,3.72
2023-03-28T16:26:36.705Z,3.53
2023-03-28T16:29:06.306Z,3.65
2023-03-28T16:31:36.065Z,4.30
2023-03-28T16:34:08.527Z,9.20
2023-03-28T16:36:40.814Z,3.17
2023-03-28T16:39:12.049Z,5.38
2023-03-28T16:41:41.495Z,4.45
2023-03-28T16:44:11.878Z,6.35
2023-03-28T16:46:41.582Z,3.47
2023-03-28T16:49:11.324Z,5.13
2023-03-28T16:51:42.153Z,5.40
2023-03-28T16:54:11.721Z,5.53
2023-03-28T16:56:41.409Z,4.43
2023-03-28T16:59:11.892Z,5.78
2023-03-28T17:01:42.966Z,4.10
2023-03-28T17:04:12.516Z,4.35
2023-03-28T17:06:43.311Z,6.15
2023-03-28T17:09:13.221Z,6.45
2023-03-28T17:11:42.898Z,4.05
2023-03-28T17:14:12.289Z,2.72
2023-03-28T17:16:41.826Z,4.13
2023-03-28T17:19:11.224Z,3.75
2023-03-28T17:21:42.003Z,2.95
2023-03-28T17:24:11.637Z,5.40
2023-03-28T17:26:41.245Z,4.35
2023-03-28T17:29:11.935Z,5.65
2023-03-28T17:31:41.815Z,6.53
2023-03-28T17:34:12.708Z,3.03
2023-03-28T17:36:44.238Z,3.35
2023-03-28T17:39:13.712Z,4.95
2023-03-28T17:41:43.147Z,3.65
2023-03-28T17:44:12.639Z,4.28
2023-03-28T17:46:44.560Z,5.22
2023-03-28T17:49:15.222Z,6.18
2023-03-28T17:51:47.983Z,4.93
2023-03-28T17:54:17.916Z,7.28
2023-03-28T17:56:47.434Z,6.40
2023-03-28T17:59:17.233Z,7.45
2023-03-28T18:01:46.753Z,6.18
2023-03-28T18:04:17.522Z,8.52
2023-03-28T18:07:15.924Z,7.65
2023-03-28T18:09:46.358Z,4.32
2023-03-28T18:12:17.468Z,4.25
2023-03-28T18:14:48.355Z,6.15
2023-03-28T18:17:19.754Z,5.82
2023-03-28T18:19:49.204Z,5.65
2023-03-28T18:22:20.137Z,7.05
2023-03-28T18:24:49.545Z,5.00
2023-03-28T18:27:18.989Z,6.43
2023-03-28T18:29:49.481Z,3.85
2023-03-28T18:32:18.868Z,5.72
2023-03-28T18:34:48.293Z,5.00
2023-03-28T18:37:19.087Z,4.57
2023-03-28T18:39:48.800Z,5.68
2023-03-28T18:42:18.282Z,5.97
2023-03-28T18:44:48.742Z,5.78
2023-03-28T18:47:18.182Z,4.43
2023-03-28T18:49:47.573Z,7.45
2023-03-28T18:52:17.198Z,6.43
2023-03-28T18:54:49.201Z,7.53
2023-03-28T18:57:18.743Z,4.70
2023-03-28T18:59:48.346Z,4.97
2023-03-28T19:02:17.799Z,4.43
2023-03-28T19:04:47.626Z,6.40
2023-03-28T19:07:18.880Z,4.05
2023-03-28T19:09:50.151Z,7.35
2023-03-28T19:12:19.541Z,5.75
2023-03-28T19:14:50.153Z,6.85
2023-03-28T19:17:19.728Z,6.13
2023-03-28T19:19:49.157Z,4.10
2023-03-28T19:22:18.525Z,5.43
2023-03-28T19:24:49.303Z,5.00
2023-03-28T19:27:18.745Z,7.95
2023-03-28T19:29:48.271Z,4.35
2023-03-28T19:32:18.008Z,7.60
2023-03-28T19:34:47.495Z,8.10
2023-03-28T19:37:16.950Z,4.05
2023-03-28T19:39:46.351Z,5.32
2023-03-28T19:42:18.096Z,7.30
2023-03-28T19:44:47.531Z,3.03
2023-03-28T19:47:16.954Z,7.22
2023-03-28T19:49:46.350Z,7.68
2023-03-28T19:52:15.848Z,6.38
2023-03-28T19:54:45.275Z,4.60
2023-03-28T19:57:16.095Z,6.75
2023-03-28T19:59:45.724Z,4.45
2023-03-28T20:02:15.466Z,3.90
2023-03-28T20:04:44.907Z,6.32
2023-03-28T20:07:14.403Z,7.70
2023-03-28T20:09:48.641Z,5.03
2023-03-28T20:12:20.770Z,6.90
2023-03-28T20:14:50.144Z,4.55
2023-03-28T20:17:19.763Z,6.57
2023-03-28T20:19:51.477Z,5.40
2023-03-28T20:22:24.321Z,5.13
2023-03-28T20:24:53.784Z,6.10
2023-03-28T20:27:25.048Z,6.53
2023-03-28T20:29:54.438Z,5.90
2023-03-28T20:32:23.858Z,4.75
2023-03-28T20:34:53.302Z,8.65
2023-03-28T20:37:23.458Z,7.68
2023-03-28T20:39:53.395Z,5.18
2023-03-28T20:42:24.319Z,6.55
2023-03-28T20:44:54.164Z,5.47
2023-03-28T20:47:25.177Z,6.82
2023-03-28T20:49:56.854Z,6.38
2023-03-28T20:52:26.314Z,5.35
2023-03-28T20:54:55.696Z,7.97
2023-03-28T20:57:30.289Z,5.75
2023-03-28T21:00:01.251Z,6.43
2023-03-28T21:02:33.617Z,6.60
2023-03-28T21:05:04.517Z,5.40
2023-03-28T21:07:33.964Z,9.45
2023-03-28T21:10:03.910Z,6.00
2023-03-28T21:12:34.730Z,7.10
2023-03-28T21:15:04.641Z,7.60
2023-03-28T21:17:34.464Z,6.57
2023-03-28T21:20:07.169Z,7.55
2023-03-28T21:22:37.964Z,14.40
2023-03-28T21:25:10.455Z,8.20
2023-03-28T21:27:41.465Z,7.03
2023-03-28T21:30:13.800Z,5.63
2023-03-28T21:32:43.913Z,6.87
2023-03-28T21:35:15.238Z,6.22
2023-03-28T21:37:44.645Z,7.57
2023-03-28T21:40:14.144Z,6.47
2023-03-28T21:42:44.952Z,6.78
2023-03-28T21:45:14.423Z,7.40
2023-03-28T21:47:44.921Z,5.15
2023-03-28T21:50:15.086Z,6.55
2023-03-28T21:52:44.672Z,5.97
2023-03-28T21:55:14.101Z,6.22
2023-03-28T21:57:44.924Z,4.65
2023-03-28T22:00:17.221Z,5.95
2023-03-28T22:02:46.677Z,7.30
2023-03-28T22:05:28.609Z,3.67
2023-03-28T22:07:59.905Z,5.33
2023-03-28T22:10:29.351Z,4.72
2023-03-28T22:13:00.219Z,4.25
2023-03-28T22:15:32.377Z,4.43
2023-03-28T22:18:04.402Z,5.22
2023-03-28T22:20:33.958Z,5.72
2023-03-28T22:23:04.603Z,3.45
2023-03-28T22:25:38.221Z,4.53
2023-03-28T22:28:11.859Z,3.45
2023-03-28T22:30:42.351Z,8.50
2023-03-28T22:33:13.457Z,6.07
2023-03-28T22:35:43.066Z,6.25
2023-03-28T22:38:12.454Z,9.93
2023-03-28T22:40:42.006Z,4.95
2023-03-28T22:43:12.985Z,5.45
2023-03-28T22:45:42.865Z,4.80
2023-03-28T22:48:15.138Z,4.70
2023-03-28T22:50:46.199Z,5.55
2023-03-28T22:53:16.312Z,3.22
2023-03-28T22:55:46.310Z,6.13
2023-03-28T22:58:17.932Z,6.50
2023-03-28T23:00:47.559Z,4.13
2023-03-28T23:03:18.007Z,4.28
2023-03-28T23:05:47.640Z,5.35
2023-03-28T23:08:17.108Z,3.97
2023-03-28T23:10:47.433Z,4.80
2023-03-28T23:13:18.242Z,4.18
2023-03-28T23:15:47.908Z,4.70
2023-03-28T23:18:17.420Z,4.95
2023-03-28T23:20:51.209Z,4.03
2023-03-28T23:23:21.043Z,5.10
2023-03-28T23:25:50.427Z,6.90
2023-03-28T23:28:21.160Z,5.75
2023-03-28T23:30:50.655Z,3.92
2023-03-28T23:33:20.829Z,6.47
2023-03-28T23:35:50.433Z,4.47
2023-03-28T23:38:20.005Z,6.80
2023-03-28T23:40:49.555Z,4.85
2023-03-28T23:43:20.358Z,4.18
2023-03-28T23:45:49.802Z,6.63
2023-03-28T23:48:19.309Z,7.00
2023-03-28T23:50:48.672Z,6.57
2023-03-28T23:53:18.091Z,5.53
2023-03-28T23:55:47.501Z,6.45
2023-03-28T23:58:16.940Z,8.13
